sensor_id;sensor_type;location;lat;lon;timestamp;P1;durP1;ratioP1;P2;durP2;ratioP2
19869;SDS011;10097;50.862;4.696;2023-02-19T00:00:55;9.83;;;4.43;;
19869;SDS011;10097;50.862;4.696;2023-02-19T00:03:21;10.23;;;3.97;;
19869;SDS011;10097;50.862;4.696;2023-02-19T00:05:46;10.60;;;4.50;;
19869;SDS011;10097;50.862;4.696;2023-02-19T00:08:12;8.83;;;3.70;;
19869;SDS011;10097;50.862;4.696;2023-02-19T00:10:38;8.53;;;3.70;;
19869;SDS011;10097;50.862;4.696;2023-02-19T00:13:03;9.73;;;4.13;;
19869;SDS011;10097;50.862;4.696;2023-02-19T00:15:32;8.57;;;3.97;;
19869;SDS011;10097;50.862;4.696;2023-02-19T00:17:58;8.90;;;3.93;;
19869;SDS011;10097;50.862;4.696;2023-02-19T00:20:23;11.60;;;4.17;;
19869;SDS011;10097;50.862;4.696;2023-02-19T00:22:49;8.20;;;3.80;;
19869;SDS011;10097;50.862;4.696;2023-02-19T00:25:17;11.40;;;4.03;;
19869;SDS011;10097;50.862;4.696;2023-02-19T00:27:42;11.97;;;4.23;;
19869;SDS011;10097;50.862;4.696;2023-02-19T00:30:08;9.77;;;4.60;;
19869;SDS011;10097;50.862;4.696;2023-02-19T00:32:34;12.40;;;5.00;;
19869;SDS011;10097;50.862;4.696;2023-02-19T00:35:00;14.43;;;5.20;;
19869;SDS011;10097;50.862;4.696;2023-02-19T00:37:25;12.27;;;6.03;;
19869;SDS011;10097;50.862;4.696;2023-02-19T00:39:51;12.20;;;6.00;;
19869;SDS011;10097;50.862;4.696;2023-02-19T00:42:17;13.87;;;5.83;;
19869;SDS011;10097;50.862;4.696;2023-02-19T00:44:44;17.33;;;6.50;;
19869;SDS011;10097;50.862;4.696;2023-02-19T00:47:09;16.23;;;6.50;;
19869;SDS011;10097;50.862;4.696;2023-02-19T00:49:35;13.47;;;6.33;;
19869;SDS011;10097;50.862;4.696;2023-02-19T00:52:00;16.57;;;7.00;;
19869;SDS011;10097;50.862;4.696;2023-02-19T00:54:26;14.17;;;6.57;;
19869;SDS011;10097;50.862;4.696;2023-02-19T00:56:52;20.47;;;7.30;;
19869;SDS011;10097;50.862;4.696;2023-02-19T00:59:17;17.43;;;6.60;;
19869;SDS011;10097;50.862;4.696;2023-02-19T01:01:43;14.87;;;5.77;;
19869;SDS011;10097;50.862;4.696;2023-02-19T01:04:09;14.50;;;6.57;;
19869;SDS011;10097;50.862;4.696;2023-02-19T01:06:36;13.77;;;5.67;;
19869;SDS011;10097;50.862;4.696;2023-02-19T01:09:02;13.23;;;5.83;;
19869;SDS011;10097;50.862;4.696;2023-02-19T01:11:28;13.97;;;5.70;;
19869;SDS011;10097;50.862;4.696;2023-02-19T01:14:01;13.07;;;5.43;;
19869;SDS011;10097;50.862;4.696;2023-02-19T01:16:28;13.57;;;5.80;;
19869;SDS011;10097;50.862;4.696;2023-02-19T01:18:55;14.13;;;6.23;;
19869;SDS011;10097;50.862;4.696;2023-02-19T01:21:22;12.87;;;5.60;;
19869;SDS011;10097;50.862;4.696;2023-02-19T01:23:49;14.50;;;5.30;;
19869;SDS011;10097;50.862;4.696;2023-02-19T01:26:18;13.10;;;5.87;;
19869;SDS011;10097;50.862;4.696;2023-02-19T01:28:49;14.47;;;5.63;;
19869;SDS011;10097;50.862;4.696;2023-02-19T01:31:16;15.50;;;5.10;;
19869;SDS011;10097;50.862;4.696;2023-02-19T01:33:45;17.00;;;5.20;;
19869;SDS011;10097;50.862;4.696;2023-02-19T01:36:12;12.10;;;5.17;;
19869;SDS011;10097;50.862;4.696;2023-02-19T01:38:38;12.13;;;4.80;;
19869;SDS011;10097;50.862;4.696;2023-02-19T01:41:04;15.93;;;5.43;;
19869;SDS011;10097;50.862;4.696;2023-02-19T01:43:33;11.77;;;5.40;;
19869;SDS011;10097;50.862;4.696;2023-02-19T01:46:00;12.27;;;5.30;;
19869;SDS011;10097;50.862;4.696;2023-02-19T01:48:33;14.90;;;5.20;;
19869;SDS011;10097;50.862;4.696;2023-02-19T01:51:06;12.40;;;5.47;;
19869;SDS011;10097;50.862;4.696;2023-02-19T01:53:42;14.10;;;4.87;;
19869;SDS011;10097;50.862;4.696;2023-02-19T01:56:12;15.40;;;4.60;;
19869;SDS011;10097;50.862;4.696;2023-02-19T01:58:39;13.47;;;5.10;;
19869;SDS011;10097;50.862;4.696;2023-02-19T02:01:06;13.67;;;5.00;;
19869;SDS011;10097;50.862;4.696;2023-02-19T02:03:33;14.97;;;5.33;;
19869;SDS011;10097;50.862;4.696;2023-02-19T02:06:11;13.57;;;4.70;;
19869;SDS011;10097;50.862;4.696;2023-02-19T02:08:48;14.87;;;4.60;;
19869;SDS011;10097;50.862;4.696;2023-02-19T02:11:35;17.20;;;5.57;;
19869;SDS011;10097;50.862;4.696;2023-02-19T02:14:04;13.90;;;4.50;;
19869;SDS011;10097;50.862;4.696;2023-02-19T02:27:34;12.07;;;3.60;;
19869;SDS011;10097;50.862;4.696;2023-02-19T02:30:22;14.40;;;3.73;;
19869;SDS011;10097;50.862;4.696;2023-02-19T02:35:48;14.20;;;3.60;;
19869;SDS011;10097;50.862;4.696;2023-02-19T02:38:31;15.60;;;3.93;;
19869;SDS011;10097;50.862;4.696;2023-02-19T02:41:03;14.20;;;3.40;;
19869;SDS011;10097;50.862;4.696;2023-02-19T02:43:30;12.93;;;3.70;;
19869;SDS011;10097;50.862;4.696;2023-02-19T02:45:56;11.73;;;3.20;;
19869;SDS011;10097;50.862;4.696;2023-02-19T02:48:26;15.07;;;3.93;;
19869;SDS011;10097;50.862;4.696;2023-02-19T02:56:31;13.73;;;3.20;;
19869;SDS011;10097;50.862;4.696;2023-02-19T02:58:59;15.43;;;2.87;;
19869;SDS011;10097;50.862;4.696;2023-02-19T03:01:47;11.00;;;2.37;;
19869;SDS011;10097;50.862;4.696;2023-02-19T03:13:43;16.77;;;2.77;;
19869;SDS011;10097;50.862;4.696;2023-02-19T03:16:29;12.40;;;2.60;;
19869;SDS011;10097;50.862;4.696;2023-02-19T03:19:19;14.93;;;2.70;;
19869;SDS011;10097;50.862;4.696;2023-02-19T03:24:27;10.37;;;2.00;;
19869;SDS011;10097;50.862;4.696;2023-02-19T03:27:14;12.63;;;2.33;;
19869;SDS011;10097;50.862;4.696;2023-02-19T03:29:42;15.90;;;2.73;;
19869;SDS011;10097;50.862;4.696;2023-02-19T03:32:20;12.50;;;2.77;;
19869;SDS011;10097;50.862;4.696;2023-02-19T03:34:59;9.93;;;2.50;;
19869;SDS011;10097;50.862;4.696;2023-02-19T03:37:41;15.03;;;2.67;;
19869;SDS011;10097;50.862;4.696;2023-02-19T03:40:11;13.20;;;2.03;;
19869;SDS011;10097;50.862;4.696;2023-02-19T03:50:46;12.80;;;1.83;;
19869;SDS011;10097;50.862;4.696;2023-02-19T03:53:37;18.17;;;2.70;;
19869;SDS011;10097;50.862;4.696;2023-02-19T03:56:24;11.23;;;2.13;;
19869;SDS011;10097;50.862;4.696;2023-02-19T03:59:07;14.20;;;1.83;;
19869;SDS011;10097;50.862;4.696;2023-02-19T04:01:53;10.33;;;2.00;;
19869;SDS011;10097;50.862;4.696;2023-02-19T04:04:28;14.67;;;2.50;;
19869;SDS011;10097;50.862;4.696;2023-02-19T04:06:58;12.50;;;2.43;;
19869;SDS011;10097;50.862;4.696;2023-02-19T04:09:26;16.03;;;2.83;;
19869;SDS011;10097;50.862;4.696;2023-02-19T04:12:02;11.43;;;1.77;;
19869;SDS011;10097;50.862;4.696;2023-02-19T04:14:31;16.00;;;2.70;;
19869;SDS011;10097;50.862;4.696;2023-02-19T04:17:10;13.53;;;2.47;;
19869;SDS011;10097;50.862;4.696;2023-02-19T04:19:41;14.00;;;2.17;;
19869;SDS011;10097;50.862;4.696;2023-02-19T04:22:07;12.30;;;2.03;;
19869;SDS011;10097;50.862;4.696;2023-02-19T04:24:37;13.00;;;2.33;;
19869;SDS011;10097;50.862;4.696;2023-02-19T04:27:08;16.40;;;2.47;;
19869;SDS011;10097;50.862;4.696;2023-02-19T04:29:35;16.27;;;2.43;;
19869;SDS011;10097;50.862;4.696;2023-02-19T04:32:00;14.60;;;2.03;;
19869;SDS011;10097;50.862;4.696;2023-02-19T04:34:26;10.80;;;2.17;;
19869;SDS011;10097;50.862;4.696;2023-02-19T04:36:52;15.13;;;2.13;;
19869;SDS011;10097;50.862;4.696;2023-02-19T04:39:17;13.40;;;2.17;;
19869;SDS011;10097;50.862;4.696;2023-02-19T04:41:43;15.23;;;3.63;;
19869;SDS011;10097;50.862;4.696;2023-02-19T04:44:09;11.23;;;1.90;;
19869;SDS011;10097;50.862;4.696;2023-02-19T04:46:34;18.40;;;2.43;;
19869;SDS011;10097;50.862;4.696;2023-02-19T04:49:00;10.83;;;1.80;;
19869;SDS011;10097;50.862;4.696;2023-02-19T04:51:26;10.70;;;2.00;;
19869;SDS011;10097;50.862;4.696;2023-02-19T04:53:51;17.50;;;2.43;;
19869;SDS011;10097;50.862;4.696;2023-02-19T04:56:17;16.10;;;2.30;;
19869;SDS011;10097;50.862;4.696;2023-02-19T04:58:43;22.87;;;2.70;;
19869;SDS011;10097;50.862;4.696;2023-02-19T05:01:09;17.67;;;2.20;;
19869;SDS011;10097;50.862;4.696;2023-02-19T05:03:35;16.20;;;2.10;;
19869;SDS011;10097;50.862;4.696;2023-02-19T05:06:02;15.47;;;2.10;;
19869;SDS011;10097;50.862;4.696;2023-02-19T05:08:35;15.73;;;2.77;;
19869;SDS011;10097;50.862;4.696;2023-02-19T05:11:01;17.97;;;2.40;;
19869;SDS011;10097;50.862;4.696;2023-02-19T05:13:28;15.73;;;2.87;;
19869;SDS011;10097;50.862;4.696;2023-02-19T05:18:23;14.73;;;2.33;;
19869;SDS011;10097;50.862;4.696;2023-02-19T05:20:49;12.63;;;2.50;;
19869;SDS011;10097;50.862;4.696;2023-02-19T05:23:16;16.13;;;2.43;;
19869;SDS011;10097;50.862;4.696;2023-02-19T05:25:41;12.80;;;2.43;;
19869;SDS011;10097;50.862;4.696;2023-02-19T05:28:07;15.63;;;2.20;;
19869;SDS011;10097;50.862;4.696;2023-02-19T05:30:48;14.67;;;2.20;;
19869;SDS011;10097;50.862;4.696;2023-02-19T05:33:16;14.30;;;2.30;;
19869;SDS011;10097;50.862;4.696;2023-02-19T05:35:44;12.00;;;2.33;;
19869;SDS011;10097;50.862;4.696;2023-02-19T05:38:12;21.30;;;2.97;;
19869;SDS011;10097;50.862;4.696;2023-02-19T05:40:39;17.27;;;3.43;;
19869;SDS011;10097;50.862;4.696;2023-02-19T05:43:05;19.30;;;2.17;;
19869;SDS011;10097;50.862;4.696;2023-02-19T05:45:31;15.70;;;2.90;;
19869;SDS011;10097;50.862;4.696;2023-02-19T05:47:58;14.43;;;2.67;;
19869;SDS011;10097;50.862;4.696;2023-02-19T05:50:23;15.87;;;2.20;;
19869;SDS011;10097;50.862;4.696;2023-02-19T05:52:49;13.17;;;2.40;;
19869;SDS011;10097;50.862;4.696;2023-02-19T05:55:15;20.17;;;2.77;;
19869;SDS011;10097;50.862;4.696;2023-02-19T05:57:45;18.20;;;3.00;;
19869;SDS011;10097;50.862;4.696;2023-02-19T06:00:12;14.70;;;2.47;;
19869;SDS011;10097;50.862;4.696;2023-02-19T06:02:39;11.67;;;2.30;;
19869;SDS011;10097;50.862;4.696;2023-02-19T06:05:05;16.20;;;2.87;;
19869;SDS011;10097;50.862;4.696;2023-02-19T06:07:30;15.17;;;2.10;;
19869;SDS011;10097;50.862;4.696;2023-02-19T06:09:56;17.03;;;2.60;;
19869;SDS011;10097;50.862;4.696;2023-02-19T06:12:22;16.40;;;2.60;;
19869;SDS011;10097;50.862;4.696;2023-02-19T06:14:48;14.50;;;2.40;;
19869;SDS011;10097;50.862;4.696;2023-02-19T06:17:14;18.80;;;2.60;;
19869;SDS011;10097;50.862;4.696;2023-02-19T06:19:39;17.23;;;2.30;;
19869;SDS011;10097;50.862;4.696;2023-02-19T06:22:05;15.20;;;2.30;;
19869;SDS011;10097;50.862;4.696;2023-02-19T06:24:31;17.47;;;3.13;;
19869;SDS011;10097;50.862;4.696;2023-02-19T06:26:57;12.80;;;3.77;;
19869;SDS011;10097;50.862;4.696;2023-02-19T06:29:23;15.90;;;2.33;;
19869;SDS011;10097;50.862;4.696;2023-02-19T06:31:48;15.90;;;2.60;;
19869;SDS011;10097;50.862;4.696;2023-02-19T06:34:14;12.73;;;2.90;;
19869;SDS011;10097;50.862;4.696;2023-02-19T06:36:40;18.57;;;2.40;;
19869;SDS011;10097;50.862;4.696;2023-02-19T06:39:05;19.60;;;2.40;;
19869;SDS011;10097;50.862;4.696;2023-02-19T06:41:31;22.47;;;2.80;;
19869;SDS011;10097;50.862;4.696;2023-02-19T06:43:57;19.47;;;3.20;;
19869;SDS011;10097;50.862;4.696;2023-02-19T06:46:23;17.63;;;3.30;;
19869;SDS011;10097;50.862;4.696;2023-02-19T06:48:49;17.17;;;2.80;;
19869;SDS011;10097;50.862;4.696;2023-02-19T06:51:15;11.57;;;2.23;;
19869;SDS011;10097;50.862;4.696;2023-02-19T06:53:43;14.40;;;2.43;;
19869;SDS011;10097;50.862;4.696;2023-02-19T06:59:06;14.70;;;2.23;;
19869;SDS011;10097;50.862;4.696;2023-02-19T07:01:35;15.03;;;2.60;;
19869;SDS011;10097;50.862;4.696;2023-02-19T07:04:01;16.03;;;3.30;;
19869;SDS011;10097;50.862;4.696;2023-02-19T07:06:27;24.57;;;3.00;;
19869;SDS011;10097;50.862;4.696;2023-02-19T07:08:54;13.87;;;2.40;;
19869;SDS011;10097;50.862;4.696;2023-02-19T07:11:21;16.20;;;2.90;;
19869;SDS011;10097;50.862;4.696;2023-02-19T07:13:52;18.53;;;3.93;;
19869;SDS011;10097;50.862;4.696;2023-02-19T07:16:22;16.47;;;2.57;;
19869;SDS011;10097;50.862;4.696;2023-02-19T07:18:48;13.30;;;2.70;;
19869;SDS011;10097;50.862;4.696;2023-02-19T07:21:14;14.90;;;2.20;;
19869;SDS011;10097;50.862;4.696;2023-02-19T07:23:41;14.13;;;2.27;;
19869;SDS011;10097;50.862;4.696;2023-02-19T07:26:10;17.23;;;2.63;;
19869;SDS011;10097;50.862;4.696;2023-02-19T07:28:41;17.27;;;3.63;;
19869;SDS011;10097;50.862;4.696;2023-02-19T07:31:07;14.07;;;2.73;;
19869;SDS011;10097;50.862;4.696;2023-02-19T07:33:33;14.03;;;2.23;;
19869;SDS011;10097;50.862;4.696;2023-02-19T07:35:59;15.10;;;2.20;;
19869;SDS011;10097;50.862;4.696;2023-02-19T07:38:25;14.20;;;2.50;;
19869;SDS011;10097;50.862;4.696;2023-02-19T07:40:55;15.30;;;1.80;;
19869;SDS011;10097;50.862;4.696;2023-02-19T07:43:26;10.90;;;2.10;;
19869;SDS011;10097;50.862;4.696;2023-02-19T07:45:55;15.50;;;2.20;;
19869;SDS011;10097;50.862;4.696;2023-02-19T07:48:21;14.03;;;2.27;;
19869;SDS011;10097;50.862;4.696;2023-02-19T07:50:54;17.30;;;2.50;;
19869;SDS011;10097;50.862;4.696;2023-02-19T07:53:21;12.60;;;2.07;;
19869;SDS011;10097;50.862;4.696;2023-02-19T07:55:48;16.93;;;2.33;;
19869;SDS011;10097;50.862;4.696;2023-02-19T07:58:14;15.10;;;3.10;;
19869;SDS011;10097;50.862;4.696;2023-02-19T08:00:40;17.37;;;2.87;;
19869;SDS011;10097;50.862;4.696;2023-02-19T08:03:06;11.57;;;2.27;;
19869;SDS011;10097;50.862;4.696;2023-02-19T08:05:33;19.57;;;3.07;;
19869;SDS011;10097;50.862;4.696;2023-02-19T08:08:06;22.13;;;3.00;;
19869;SDS011;10097;50.862;4.696;2023-02-19T08:10:32;12.07;;;2.07;;
19869;SDS011;10097;50.862;4.696;2023-02-19T08:13:16;12.90;;;2.30;;
19869;SDS011;10097;50.862;4.696;2023-02-19T08:18:27;11.20;;;2.07;;
19869;SDS011;10097;50.862;4.696;2023-02-19T08:20:57;12.67;;;2.27;;
19869;SDS011;10097;50.862;4.696;2023-02-19T08:23:23;12.20;;;2.50;;
19869;SDS011;10097;50.862;4.696;2023-02-19T08:25:50;16.73;;;2.80;;
19869;SDS011;10097;50.862;4.696;2023-02-19T08:28:17;16.13;;;2.20;;
19869;SDS011;10097;50.862;4.696;2023-02-19T08:30:43;13.07;;;2.13;;
19869;SDS011;10097;50.862;4.696;2023-02-19T08:33:12;18.13;;;2.33;;
19869;SDS011;10097;50.862;4.696;2023-02-19T08:35:39;14.70;;;2.30;;
19869;SDS011;10097;50.862;4.696;2023-02-19T08:38:07;20.63;;;3.23;;
19869;SDS011;10097;50.862;4.696;2023-02-19T08:40:33;17.17;;;2.30;;
19869;SDS011;10097;50.862;4.696;2023-02-19T08:43:06;17.40;;;2.43;;
19869;SDS011;10097;50.862;4.696;2023-02-19T08:45:43;13.53;;;3.03;;
19869;SDS011;10097;50.862;4.696;2023-02-19T08:48:09;13.37;;;2.30;;
19869;SDS011;10097;50.862;4.696;2023-02-19T08:50:35;10.70;;;2.40;;
19869;SDS011;10097;50.862;4.696;2023-02-19T08:53:01;14.37;;;2.17;;
19869;SDS011;10097;50.862;4.696;2023-02-19T08:55:28;14.17;;;2.37;;
19869;SDS011;10097;50.862;4.696;2023-02-19T08:57:54;18.90;;;2.83;;
19869;SDS011;10097;50.862;4.696;2023-02-19T09:00:19;14.37;;;2.17;;
19869;SDS011;10097;50.862;4.696;2023-02-19T09:02:45;14.70;;;4.17;;
19869;SDS011;10097;50.862;4.696;2023-02-19T09:05:12;10.13;;;1.90;;
19869;SDS011;10097;50.862;4.696;2023-02-19T09:07:38;15.77;;;3.30;;
19869;SDS011;10097;50.862;4.696;2023-02-19T09:10:05;16.50;;;2.97;;
19869;SDS011;10097;50.862;4.696;2023-02-19T09:12:31;13.80;;;1.97;;
19869;SDS011;10097;50.862;4.696;2023-02-19T09:14:59;12.13;;;2.00;;
19869;SDS011;10097;50.862;4.696;2023-02-19T09:17:25;13.97;;;3.13;;
19869;SDS011;10097;50.862;4.696;2023-02-19T09:19:51;13.47;;;2.07;;
19869;SDS011;10097;50.862;4.696;2023-02-19T09:22:17;18.43;;;2.83;;
19869;SDS011;10097;50.862;4.696;2023-02-19T09:24:43;11.97;;;2.40;;
19869;SDS011;10097;50.862;4.696;2023-02-19T09:27:08;19.80;;;2.83;;
19869;SDS011;10097;50.862;4.696;2023-02-19T09:29:42;17.30;;;2.70;;
19869;SDS011;10097;50.862;4.696;2023-02-19T09:32:09;11.50;;;2.33;;
19869;SDS011;10097;50.862;4.696;2023-02-19T09:34:35;12.97;;;2.63;;
19869;SDS011;10097;50.862;4.696;2023-02-19T09:37:01;12.50;;;2.83;;
19869;SDS011;10097;50.862;4.696;2023-02-19T09:39:27;11.43;;;2.47;;
19869;SDS011;10097;50.862;4.696;2023-02-19T09:41:57;15.87;;;2.43;;
19869;SDS011;10097;50.862;4.696;2023-02-19T09:44:28;12.40;;;2.43;;
19869;SDS011;10097;50.862;4.696;2023-02-19T09:47:04;14.50;;;2.30;;
19869;SDS011;10097;50.862;4.696;2023-02-19T09:49:40;15.63;;;2.83;;
19869;SDS011;10097;50.862;4.696;2023-02-19T09:54:48;10.60;;;2.53;;
19869;SDS011;10097;50.862;4.696;2023-02-19T09:57:19;12.73;;;2.00;;
19869;SDS011;10097;50.862;4.696;2023-02-19T09:59:50;13.63;;;2.37;;
19869;SDS011;10097;50.862;4.696;2023-02-19T10:02:18;9.90;;;2.57;;
19869;SDS011;10097;50.862;4.696;2023-02-19T10:04:46;11.33;;;2.20;;
19869;SDS011;10097;50.862;4.696;2023-02-19T10:07:19;10.90;;;2.03;;
19869;SDS011;10097;50.862;4.696;2023-02-19T10:09:49;10.30;;;2.10;;
19869;SDS011;10097;50.862;4.696;2023-02-19T10:12:26;15.00;;;3.43;;
19869;SDS011;10097;50.862;4.696;2023-02-19T10:15:00;8.87;;;2.43;;
19869;SDS011;10097;50.862;4.696;2023-02-19T10:17:49;13.67;;;2.53;;
19869;SDS011;10097;50.862;4.696;2023-02-19T10:20:15;18.33;;;5.20;;
19869;SDS011;10097;50.862;4.696;2023-02-19T10:22:44;12.23;;;2.30;;
19869;SDS011;10097;50.862;4.696;2023-02-19T10:25:16;13.87;;;2.20;;
19869;SDS011;10097;50.862;4.696;2023-02-19T10:27:42;12.47;;;2.87;;
19869;SDS011;10097;50.862;4.696;2023-02-19T10:30:15;10.47;;;2.50;;
19869;SDS011;10097;50.862;4.696;2023-02-19T10:32:57;12.47;;;2.50;;
19869;SDS011;10097;50.862;4.696;2023-02-19T10:35:28;10.67;;;2.50;;
19869;SDS011;10097;50.862;4.696;2023-02-19T10:37:55;10.73;;;2.60;;
19869;SDS011;10097;50.862;4.696;2023-02-19T10:40:22;9.13;;;2.83;;
19869;SDS011;10097;50.862;4.696;2023-02-19T10:43:01;13.50;;;2.50;;
19869;SDS011;10097;50.862;4.696;2023-02-19T10:47:59;8.60;;;2.37;;
19869;SDS011;10097;50.862;4.696;2023-02-19T10:50:35;10.17;;;2.80;;
19869;SDS011;10097;50.862;4.696;2023-02-19T10:53:03;9.50;;;2.73;;
19869;SDS011;10097;50.862;4.696;2023-02-19T10:55:33;16.40;;;2.87;;
19869;SDS011;10097;50.862;4.696;2023-02-19T11:01:08;10.17;;;3.23;;
19869;SDS011;10097;50.862;4.696;2023-02-19T11:03:43;8.87;;;2.33;;
19869;SDS011;10097;50.862;4.696;2023-02-19T11:06:10;16.10;;;3.27;;
19869;SDS011;10097;50.862;4.696;2023-02-19T11:11:09;14.40;;;2.73;;
19869;SDS011;10097;50.862;4.696;2023-02-19T11:13:45;14.30;;;2.73;;
19869;SDS011;10097;50.862;4.696;2023-02-19T11:16:11;8.77;;;2.37;;
19869;SDS011;10097;50.862;4.696;2023-02-19T11:18:36;7.70;;;2.40;;
19869;SDS011;10097;50.862;4.696;2023-02-19T11:21:04;12.97;;;2.80;;
19869;SDS011;10097;50.862;4.696;2023-02-19T11:23:42;11.57;;;2.87;;
19869;SDS011;10097;50.862;4.696;2023-02-19T11:26:15;10.97;;;2.53;;
19869;SDS011;10097;50.862;4.696;2023-02-19T11:28:56;14.00;;;2.80;;
19869;SDS011;10097;50.862;4.696;2023-02-19T11:31:25;12.97;;;2.47;;
19869;SDS011;10097;50.862;4.696;2023-02-19T11:33:59;14.63;;;2.97;;
19869;SDS011;10097;50.862;4.696;2023-02-19T11:37:10;14.77;;;3.10;;
19869;SDS011;10097;50.862;4.696;2023-02-19T11:39:37;11.10;;;2.87;;
19869;SDS011;10097;50.862;4.696;2023-02-19T11:45:10;12.27;;;2.70;;
19869;SDS011;10097;50.862;4.696;2023-02-19T11:53:27;10.10;;;2.63;;
19869;SDS011;10097;50.862;4.696;2023-02-19T12:01:32;10.23;;;2.30;;
19869;SDS011;10097;50.862;4.696;2023-02-19T12:09:35;11.97;;;3.10;;
19869;SDS011;10097;50.862;4.696;2023-02-19T12:14:39;11.37;;;2.40;;
19869;SDS011;10097;50.862;4.696;2023-02-19T12:17:28;9.87;;;2.30;;
19869;SDS011;10097;50.862;4.696;2023-02-19T12:20:21;9.07;;;2.17;;
19869;SDS011;10097;50.862;4.696;2023-02-19T12:23:01;9.47;;;2.93;;
19869;SDS011;10097;50.862;4.696;2023-02-19T12:28:25;8.40;;;2.03;;
19869;SDS011;10097;50.862;4.696;2023-02-19T12:31:12;10.07;;;2.73;;
19869;SDS011;10097;50.862;4.696;2023-02-19T12:36:39;10.00;;;2.43;;
19869;SDS011;10097;50.862;4.696;2023-02-19T12:39:29;14.13;;;2.47;;
19869;SDS011;10097;50.862;4.696;2023-02-19T12:45:15;8.83;;;2.27;;
19869;SDS011;10097;50.862;4.696;2023-02-19T12:47:54;10.23;;;2.40;;
19869;SDS011;10097;50.862;4.696;2023-02-19T12:50:38;8.73;;;2.30;;
19869;SDS011;10097;50.862;4.696;2023-02-19T12:53:05;8.47;;;2.43;;
19869;SDS011;10097;50.862;4.696;2023-02-19T12:55:55;7.93;;;2.13;;
19869;SDS011;10097;50.862;4.696;2023-02-19T12:58:31;14.90;;;2.20;;
19869;SDS011;10097;50.862;4.696;2023-02-19T13:01:02;10.40;;;2.63;;
19869;SDS011;10097;50.862;4.696;2023-02-19T13:03:33;9.37;;;2.27;;
19869;SDS011;10097;50.862;4.696;2023-02-19T13:08:37;8.90;;;2.83;;
19869;SDS011;10097;50.862;4.696;2023-02-19T13:11:15;11.60;;;2.83;;
19869;SDS011;10097;50.862;4.696;2023-02-19T13:13:46;8.63;;;2.53;;
19869;SDS011;10097;50.862;4.696;2023-02-19T13:16:19;5.17;;;2.27;;
19869;SDS011;10097;50.862;4.696;2023-02-19T13:19:04;5.77;;;2.17;;
19869;SDS011;10097;50.862;4.696;2023-02-19T13:21:30;9.10;;;2.60;;
19869;SDS011;10097;50.862;4.696;2023-02-19T13:24:24;7.87;;;2.43;;
19869;SDS011;10097;50.862;4.696;2023-02-19T13:37:39;6.93;;;2.03;;
19869;SDS011;10097;50.862;4.696;2023-02-19T13:40:16;10.07;;;2.43;;
19869;SDS011;10097;50.862;4.696;2023-02-19T13:42:49;8.07;;;2.70;;
19869;SDS011;10097;50.862;4.696;2023-02-19T13:45:22;7.80;;;2.30;;
19869;SDS011;10097;50.862;4.696;2023-02-19T13:50:29;9.03;;;2.10;;
19869;SDS011;10097;50.862;4.696;2023-02-19T13:53:00;8.33;;;2.10;;
19869;SDS011;10097;50.862;4.696;2023-02-19T14:01:17;8.13;;;2.37;;
19869;SDS011;10097;50.862;4.696;2023-02-19T14:06:17;7.57;;;2.13;;
19869;SDS011;10097;50.862;4.696;2023-02-19T14:08:50;11.00;;;2.53;;
19869;SDS011;10097;50.862;4.696;2023-02-19T14:17:02;9.77;;;2.90;;
19869;SDS011;10097;50.862;4.696;2023-02-19T14:30:45;13.67;;;3.03;;
19869;SDS011;10097;50.862;4.696;2023-02-19T14:33:16;11.67;;;2.73;;
19869;SDS011;10097;50.862;4.696;2023-02-19T14:35:45;7.20;;;2.77;;
19869;SDS011;10097;50.862;4.696;2023-02-19T14:38:14;9.50;;;3.20;;
19869;SDS011;10097;50.862;4.696;2023-02-19T14:40:45;11.07;;;2.77;;
19869;SDS011;10097;50.862;4.696;2023-02-19T14:43:13;11.53;;;2.90;;
19869;SDS011;10097;50.862;4.696;2023-02-19T14:45:42;7.23;;;2.20;;
19869;SDS011;10097;50.862;4.696;2023-02-19T14:48:16;10.03;;;2.50;;
19869;SDS011;10097;50.862;4.696;2023-02-19T14:50:51;5.93;;;2.67;;
19869;SDS011;10097;50.862;4.696;2023-02-19T14:53:21;6.90;;;2.13;;
19869;SDS011;10097;50.862;4.696;2023-02-19T14:55:49;9.20;;;2.53;;
19869;SDS011;10097;50.862;4.696;2023-02-19T14:58:21;12.33;;;3.03;;
19869;SDS011;10097;50.862;4.696;2023-02-19T15:00:53;9.10;;;2.57;;
19869;SDS011;10097;50.862;4.696;2023-02-19T15:03:30;6.70;;;2.23;;
19869;SDS011;10097;50.862;4.696;2023-02-19T15:06:05;6.77;;;2.47;;
19869;SDS011;10097;50.862;4.696;2023-02-19T15:08:39;8.90;;;2.77;;
19869;SDS011;10097;50.862;4.696;2023-02-19T15:11:14;6.27;;;2.33;;
19869;SDS011;10097;50.862;4.696;2023-02-19T15:13:46;5.47;;;2.60;;
19869;SDS011;10097;50.862;4.696;2023-02-19T15:16:17;7.90;;;2.60;;
19869;SDS011;10097;50.862;4.696;2023-02-19T15:18:45;6.67;;;2.47;;
19869;SDS011;10097;50.862;4.696;2023-02-19T15:21:25;9.50;;;2.93;;
19869;SDS011;10097;50.862;4.696;2023-02-19T15:23:54;5.63;;;2.30;;
19869;SDS011;10097;50.862;4.696;2023-02-19T15:26:22;10.47;;;3.93;;
19869;SDS011;10097;50.862;4.696;2023-02-19T15:28:56;5.90;;;2.03;;
19869;SDS011;10097;50.862;4.696;2023-02-19T15:31:27;7.47;;;2.20;;
19869;SDS011;10097;50.862;4.696;2023-02-19T15:33:53;5.20;;;1.90;;
19869;SDS011;10097;50.862;4.696;2023-02-19T15:36:23;8.10;;;1.97;;
19869;SDS011;10097;50.862;4.696;2023-02-19T15:38:59;4.17;;;1.57;;
19869;SDS011;10097;50.862;4.696;2023-02-19T15:41:27;5.70;;;2.20;;
19869;SDS011;10097;50.862;4.696;2023-02-19T15:43:58;4.60;;;2.10;;
19869;SDS011;10097;50.862;4.696;2023-02-19T15:46:39;3.53;;;1.77;;
19869;SDS011;10097;50.862;4.696;2023-02-19T15:49:21;6.73;;;1.73;;
19869;SDS011;10097;50.862;4.696;2023-02-19T15:52:15;4.10;;;1.40;;
19869;SDS011;10097;50.862;4.696;2023-02-19T15:55:12;5.53;;;1.80;;
19869;SDS011;10097;50.862;4.696;2023-02-19T15:57:47;9.00;;;1.93;;
19869;SDS011;10097;50.862;4.696;2023-02-19T16:00:18;4.50;;;2.23;;
19869;SDS011;10097;50.862;4.696;2023-02-19T16:02:56;9.83;;;1.80;;
19869;SDS011;10097;50.862;4.696;2023-02-19T16:05:23;7.20;;;2.10;;
19869;SDS011;10097;50.862;4.696;2023-02-19T16:08:05;7.67;;;1.97;;
19869;SDS011;10097;50.862;4.696;2023-02-19T16:10:56;5.83;;;1.93;;
19869;SDS011;10097;50.862;4.696;2023-02-19T16:13:24;9.50;;;1.83;;
19869;SDS011;10097;50.862;4.696;2023-02-19T16:15:54;6.10;;;1.90;;
19869;SDS011;10097;50.862;4.696;2023-02-19T16:18:27;4.47;;;1.90;;
19869;SDS011;10097;50.862;4.696;2023-02-19T16:20:53;6.17;;;2.20;;
19869;SDS011;10097;50.862;4.696;2023-02-19T16:23:20;3.37;;;1.73;;
19869;SDS011;10097;50.862;4.696;2023-02-19T16:25:49;5.20;;;1.80;;
19869;SDS011;10097;50.862;4.696;2023-02-19T16:28:25;6.37;;;1.90;;
19869;SDS011;10097;50.862;4.696;2023-02-19T16:31:00;6.23;;;2.20;;
19869;SDS011;10097;50.862;4.696;2023-02-19T16:46:45;5.53;;;2.37;;
19869;SDS011;10097;50.862;4.696;2023-02-19T16:49:14;7.27;;;2.50;;
19869;SDS011;10097;50.862;4.696;2023-02-19T16:51:40;7.00;;;2.63;;
19869;SDS011;10097;50.862;4.696;2023-02-19T16:54:08;8.03;;;3.17;;
19869;SDS011;10097;50.862;4.696;2023-02-19T16:56:34;7.77;;;2.50;;
19869;SDS011;10097;50.862;4.696;2023-02-19T16:58:59;7.87;;;3.43;;
19869;SDS011;10097;50.862;4.696;2023-02-19T17:01:25;9.23;;;3.00;;
19869;SDS011;10097;50.862;4.696;2023-02-19T17:03:52;9.47;;;3.13;;
19869;SDS011;10097;50.862;4.696;2023-02-19T17:06:24;7.07;;;2.90;;
19869;SDS011;10097;50.862;4.696;2023-02-19T17:08:52;6.77;;;3.00;;
19869;SDS011;10097;50.862;4.696;2023-02-19T17:11:17;9.93;;;3.47;;
19869;SDS011;10097;50.862;4.696;2023-02-19T17:13:43;9.47;;;3.50;;
19869;SDS011;10097;50.862;4.696;2023-02-19T17:16:17;10.57;;;2.93;;
19869;SDS011;10097;50.862;4.696;2023-02-19T17:18:44;11.73;;;3.70;;
19869;SDS011;10097;50.862;4.696;2023-02-19T17:21:14;9.77;;;3.17;;